sensor_id;sensor_type;location;lat;lon;timestamp;temperature;humidity
15384;DHT22;7790;53.022;12.968;2022-11-20T00:02:38;21.70;42.50
15384;DHT22;7790;53.022;12.968;2022-11-20T00:06:39;21.60;42.30
15384;DHT22;7790;53.022;12.968;2022-11-20T00:10:40;21.60;43.20
15384;DHT22;7790;53.022;12.968;2022-11-20T00:14:41;21.60;42.60
15384;DHT22;7790;53.022;12.968;2022-11-20T00:18:42;21.60;42.60
15384;DHT22;7790;53.022;12.968;2022-11-20T00:22:44;21.50;42.60
15384;DHT22;7790;53.022;12.968;2022-11-20T00:26:45;21.50;42.60
15384;DHT22;7790;53.022;12.968;2022-11-20T00:30:46;21.50;42.60
15384;DHT22;7790;53.022;12.968;2022-11-20T00:34:46;21.50;42.70
15384;DHT22;7790;53.022;12.968;2022-11-20T00:38:51;21.50;42.80
15384;DHT22;7790;53.022;12.968;2022-11-20T00:42:52;21.50;42.80
15384;DHT22;7790;53.022;12.968;2022-11-20T00:46:53;21.50;43.00
15384;DHT22;7790;53.022;12.968;2022-11-20T00:50:54;21.50;42.90
15384;DHT22;7790;53.022;12.968;2022-11-20T00:54:55;21.50;42.80
15384;DHT22;7790;53.022;12.968;2022-11-20T00:58:59;21.50;43.00
15384;DHT22;7790;53.022;12.968;2022-11-20T01:03:00;21.50;43.00
15384;DHT22;7790;53.022;12.968;2022-11-20T01:07:01;21.50;43.00
15384;DHT22;7790;53.022;12.968;2022-11-20T01:11:04;21.50;42.90
15384;DHT22;7790;53.022;12.968;2022-11-20T01:15:05;21.50;42.90
15384;DHT22;7790;53.022;12.968;2022-11-20T01:19:11;21.50;43.00
15384;DHT22;7790;53.022;12.968;2022-11-20T01:23:13;21.50;42.80
15384;DHT22;7790;53.022;12.968;2022-11-20T01:27:14;21.50;42.80
15384;DHT22;7790;53.022;12.968;2022-11-20T01:31:21;21.50;42.70
15384;DHT22;7790;53.022;12.968;2022-11-20T01:35:22;21.50;42.60
15384;DHT22;7790;53.022;12.968;2022-11-20T01:39:25;21.50;42.60
15384;DHT22;7790;53.022;12.968;2022-11-20T01:43:27;21.50;42.60
15384;DHT22;7790;53.022;12.968;2022-11-20T01:47:37;21.50;42.70
15384;DHT22;7790;53.022;12.968;2022-11-20T01:52:14;21.50;42.70
15384;DHT22;7790;53.022;12.968;2022-11-20T01:56:17;21.50;43.00
15384;DHT22;7790;53.022;12.968;2022-11-20T02:00:19;21.50;43.00
15384;DHT22;7790;53.022;12.968;2022-11-20T02:04:20;21.50;42.90
15384;DHT22;7790;53.022;12.968;2022-11-20T02:08:23;21.50;42.80
15384;DHT22;7790;53.022;12.968;2022-11-20T02:12:24;21.50;42.80
15384;DHT22;7790;53.022;12.968;2022-11-20T02:16:46;21.50;42.90
15384;DHT22;7790;53.022;12.968;2022-11-20T02:20:51;21.50;42.90
15384;DHT22;7790;53.022;12.968;2022-11-20T02:24:54;21.50;42.80
15384;DHT22;7790;53.022;12.968;2022-11-20T02:28:55;21.50;42.80
15384;DHT22;7790;53.022;12.968;2022-11-20T02:32:58;21.50;42.70
15384;DHT22;7790;53.022;12.968;2022-11-20T02:36:59;21.50;42.70
15384;DHT22;7790;53.022;12.968;2022-11-20T02:41:00;21.50;42.80
15384;DHT22;7790;53.022;12.968;2022-11-20T02:45:01;21.50;42.60
15384;DHT22;7790;53.022;12.968;2022-11-20T02:49:03;21.50;42.70
15384;DHT22;7790;53.022;12.968;2022-11-20T02:53:04;21.50;42.60
15384;DHT22;7790;53.022;12.968;2022-11-20T02:57:04;21.50;42.60
15384;DHT22;7790;53.022;12.968;2022-11-20T03:01:05;21.50;42.60
15384;DHT22;7790;53.022;12.968;2022-11-20T03:05:06;21.50;42.70
15384;DHT22;7790;53.022;12.968;2022-11-20T03:09:07;21.50;42.70
15384;DHT22;7790;53.022;12.968;2022-11-20T03:13:08;21.50;42.70
15384;DHT22;7790;53.022;12.968;2022-11-20T03:17:09;21.50;42.80
15384;DHT22;7790;53.022;12.968;2022-11-20T03:21:11;21.50;42.90
15384;DHT22;7790;53.022;12.968;2022-11-20T03:25:12;21.50;42.90
15384;DHT22;7790;53.022;12.968;2022-11-20T03:29:14;21.50;42.90
15384;DHT22;7790;53.022;12.968;2022-11-20T03:33:15;21.50;42.80
15384;DHT22;7790;53.022;12.968;2022-11-20T03:37:16;21.50;42.80
15384;DHT22;7790;53.022;12.968;2022-11-20T03:41:19;21.50;42.70
15384;DHT22;7790;53.022;12.968;2022-11-20T03:45:20;21.50;42.50
15384;DHT22;7790;53.022;12.968;2022-11-20T03:49:21;21.50;42.60
15384;DHT22;7790;53.022;12.968;2022-11-20T03:53:21;21.50;42.40
15384;DHT22;7790;53.022;12.968;2022-11-20T03:57:22;21.50;42.50
15384;DHT22;7790;53.022;12.968;2022-11-20T04:01:27;21.50;42.70
15384;DHT22;7790;53.022;12.968;2022-11-20T04:05:27;21.50;42.60
15384;DHT22;7790;53.022;12.968;2022-11-20T04:09:28;21.50;42.40
15384;DHT22;7790;53.022;12.968;2022-11-20T04:13:29;21.50;42.80
15384;DHT22;7790;53.022;12.968;2022-11-20T04:17:30;21.50;42.50
15384;DHT22;7790;53.022;12.968;2022-11-20T04:21:31;21.50;42.70
15384;DHT22;7790;53.022;12.968;2022-11-20T04:25:32;21.50;42.80
15384;DHT22;7790;53.022;12.968;2022-11-20T04:29:33;21.50;42.90
15384;DHT22;7790;53.022;12.968;2022-11-20T04:33:34;21.50;42.70
15384;DHT22;7790;53.022;12.968;2022-11-20T04:37:35;21.50;42.80
15384;DHT22;7790;53.022;12.968;2022-11-20T04:41:36;21.50;42.80
15384;DHT22;7790;53.022;12.968;2022-11-20T04:45:37;21.50;43.00
15384;DHT22;7790;53.022;12.968;2022-11-20T04:49:38;21.50;42.80
15384;DHT22;7790;53.022;12.968;2022-11-20T04:53:39;21.50;42.70
15384;DHT22;7790;53.022;12.968;2022-11-20T04:57:40;21.50;42.60
15384;DHT22;7790;53.022;12.968;2022-11-20T05:01:40;21.50;42.50
15384;DHT22;7790;53.022;12.968;2022-11-20T05:05:41;21.50;42.50
15384;DHT22;7790;53.022;12.968;2022-11-20T05:09:42;21.50;42.30
15384;DHT22;7790;53.022;12.968;2022-11-20T05:13:43;21.50;42.40
15384;DHT22;7790;53.022;12.968;2022-11-20T05:17:51;21.50;42.40
15384;DHT22;7790;53.022;12.968;2022-11-20T05:21:52;21.50;42.10
15384;DHT22;7790;53.022;12.968;2022-11-20T05:25:54;21.50;42.20
15384;DHT22;7790;53.022;12.968;2022-11-20T05:29:55;21.50;42.10
15384;DHT22;7790;53.022;12.968;2022-11-20T05:33:56;21.50;42.00
15384;DHT22;7790;53.022;12.968;2022-11-20T05:37:57;21.60;42.10
15384;DHT22;7790;53.022;12.968;2022-11-20T05:41:58;21.60;42.00
15384;DHT22;7790;53.022;12.968;2022-11-20T05:46:19;21.60;42.00
15384;DHT22;7790;53.022;12.968;2022-11-20T05:50:20;21.60;41.90
15384;DHT22;7790;53.022;12.968;2022-11-20T05:54:21;21.60;41.90
15384;DHT22;7790;53.022;12.968;2022-11-20T05:58:22;21.60;41.80
15384;DHT22;7790;53.022;12.968;2022-11-20T06:02:23;21.60;41.70
15384;DHT22;7790;53.022;12.968;2022-11-20T06:06:24;21.60;41.70
15384;DHT22;7790;53.022;12.968;2022-11-20T06:10:26;21.60;41.60
15384;DHT22;7790;53.022;12.968;2022-11-20T06:14:27;21.60;41.60
15384;DHT22;7790;53.022;12.968;2022-11-20T06:18:29;21.60;41.60
15384;DHT22;7790;53.022;12.968;2022-11-20T06:22:30;21.60;41.50
15384;DHT22;7790;53.022;12.968;2022-11-20T06:26:32;21.60;42.10
15384;DHT22;7790;53.022;12.968;2022-11-20T06:30:33;21.60;41.60
15384;DHT22;7790;53.022;12.968;2022-11-20T06:34:34;21.50;41.70
15384;DHT22;7790;53.022;12.968;2022-11-20T06:38:35;21.60;41.70
15384;DHT22;7790;53.022;12.968;2022-11-20T06:42:36;21.60;42.00
15384;DHT22;7790;53.022;12.968;2022-11-20T06:46:36;21.60;41.90
15384;DHT22;7790;53.022;12.968;2022-11-20T06:50:37;21.60;42.10
15384;DHT22;7790;53.022;12.968;2022-11-20T06:54:38;21.60;42.30
15384;DHT22;7790;53.022;12.968;2022-11-20T06:58:39;21.60;42.20
15384;DHT22;7790;53.022;12.968;2022-11-20T07:02:40;21.60;42.20
15384;DHT22;7790;53.022;12.968;2022-11-20T07:06:41;21.60;42.20
15384;DHT22;7790;53.022;12.968;2022-11-20T07:10:41;21.70;42.70
15384;DHT22;7790;53.022;12.968;2022-11-20T07:14:42;21.70;42.20
15384;DHT22;7790;53.022;12.968;2022-11-20T07:18:43;21.70;42.20
15384;DHT22;7790;53.022;12.968;2022-11-20T07:22:44;21.70;42.10
15384;DHT22;7790;53.022;12.968;2022-11-20T07:26:46;21.70;42.20
15384;DHT22;7790;53.022;12.968;2022-11-20T07:30:53;21.70;42.00
15384;DHT22;7790;53.022;12.968;2022-11-20T07:34:54;21.70;42.00
15384;DHT22;7790;53.022;12.968;2022-11-20T07:38:55;21.70;41.90
15384;DHT22;7790;53.022;12.968;2022-11-20T07:42:55;21.70;41.90
15384;DHT22;7790;53.022;12.968;2022-11-20T07:46:56;21.70;41.90
15384;DHT22;7790;53.022;12.968;2022-11-20T07:50:57;21.60;41.80
15384;DHT22;7790;53.022;12.968;2022-11-20T07:54:58;21.70;41.90
15384;DHT22;7790;53.022;12.968;2022-11-20T07:58:59;21.60;41.50
15384;DHT22;7790;53.022;12.968;2022-11-20T08:03:03;21.70;41.70
15384;DHT22;7790;53.022;12.968;2022-11-20T08:07:05;21.80;41.60
15384;DHT22;7790;53.022;12.968;2022-11-20T08:11:05;21.70;41.60
15384;DHT22;7790;53.022;12.968;2022-11-20T08:15:25;21.70;41.60
15384;DHT22;7790;53.022;12.968;2022-11-20T08:19:26;21.80;41.70
15384;DHT22;7790;53.022;12.968;2022-11-20T08:23:26;21.80;41.30
15384;DHT22;7790;53.022;12.968;2022-11-20T08:27:27;21.70;41.40
15384;DHT22;7790;53.022;12.968;2022-11-20T08:31:28;21.70;41.80
15384;DHT22;7790;53.022;12.968;2022-11-20T08:35:33;21.80;41.70
15384;DHT22;7790;53.022;12.968;2022-11-20T08:39:34;21.80;41.60
15384;DHT22;7790;53.022;12.968;2022-11-20T08:43:35;21.70;42.20
15384;DHT22;7790;53.022;12.968;2022-11-20T08:47:36;21.60;42.40
15384;DHT22;7790;53.022;12.968;2022-11-20T08:51:38;21.60;42.40
15384;DHT22;7790;53.022;12.968;2022-11-20T08:55:39;21.50;41.80
15384;DHT22;7790;53.022;12.968;2022-11-20T08:59:40;21.40;42.10
15384;DHT22;7790;53.022;12.968;2022-11-20T09:03:41;21.40;42.10
15384;DHT22;7790;53.022;12.968;2022-11-20T09:07:42;21.40;41.70
15384;DHT22;7790;53.022;12.968;2022-11-20T09:11:43;21.30;41.70
15384;DHT22;7790;53.022;12.968;2022-11-20T09:15:44;21.30;41.40
15384;DHT22;7790;53.022;12.968;2022-11-20T09:19:44;21.40;41.30
15384;DHT22;7790;53.022;12.968;2022-11-20T09:23:45;21.40;41.30
15384;DHT22;7790;53.022;12.968;2022-11-20T09:27:55;21.40;41.30
15384;DHT22;7790;53.022;12.968;2022-11-20T09:31:56;21.40;41.40
15384;DHT22;7790;53.022;12.968;2022-11-20T09:35:57;21.40;41.70
15384;DHT22;7790;53.022;12.968;2022-11-20T09:40:00;21.40;41.60
15384;DHT22;7790;53.022;12.968;2022-11-20T09:44:40;21.40;41.50
15384;DHT22;7790;53.022;12.968;2022-11-20T09:57:34;21.20;41.60
15384;DHT22;7790;53.022;12.968;2022-11-20T10:01:37;21.10;41.70
15384;DHT22;7790;53.022;12.968;2022-11-20T10:05:44;21.00;41.60
15384;DHT22;7790;53.022;12.968;2022-11-20T10:09:52;21.00;41.70
15384;DHT22;7790;53.022;12.968;2022-11-20T10:31:48;21.10;41.60
15384;DHT22;7790;53.022;12.968;2022-11-20T10:36:21;21.10;41.60
15384;DHT22;7790;53.022;12.968;2022-11-20T10:40:44;21.10;41.50
15384;DHT22;7790;53.022;12.968;2022-11-20T10:44:52;21.10;41.70
15384;DHT22;7790;53.022;12.968;2022-11-20T10:49:05;21.00;41.70
15384;DHT22;7790;53.022;12.968;2022-11-20T11:02:39;21.00;42.00
15384;DHT22;7790;53.022;12.968;2022-11-20T11:06:45;21.00;41.90
15384;DHT22;7790;53.022;12.968;2022-11-20T11:11:00;20.90;42.00
15384;DHT22;7790;53.022;12.968;2022-11-20T11:15:02;20.90;42.00
15384;DHT22;7790;53.022;12.968;2022-11-20T11:19:10;20.90;41.90
15384;DHT22;7790;53.022;12.968;2022-11-20T11:27:30;20.70;42.10
15384;DHT22;7790;53.022;12.968;2022-11-20T11:31:33;20.70;42.10
15384;DHT22;7790;53.022;12.968;2022-11-20T11:35:47;20.70;42.00
15384;DHT22;7790;53.022;12.968;2022-11-20T11:39:48;20.80;41.90
15384;DHT22;7790;53.022;12.968;2022-11-20T11:44:03;20.90;41.70
15384;DHT22;7790;53.022;12.968;2022-11-20T11:48:33;20.90;41.60
15384;DHT22;7790;53.022;12.968;2022-11-20T11:56:49;21.10;41.40
15384;DHT22;7790;53.022;12.968;2022-11-20T12:01:07;21.10;41.30
15384;DHT22;7790;53.022;12.968;2022-11-20T12:05:48;21.20;41.30
15384;DHT22;7790;53.022;12.968;2022-11-20T12:09:53;21.20;41.40
15384;DHT22;7790;53.022;12.968;2022-11-20T12:14:02;21.20;41.80
15384;DHT22;7790;53.022;12.968;2022-11-20T12:18:15;21.10;41.80
15384;DHT22;7790;53.022;12.968;2022-11-20T12:22:47;21.00;41.90
15384;DHT22;7790;53.022;12.968;2022-11-20T12:40:28;21.00;41.90
15384;DHT22;7790;53.022;12.968;2022-11-20T12:45:01;21.10;42.20
15384;DHT22;7790;53.022;12.968;2022-11-20T12:49:44;21.10;42.70
15384;DHT22;7790;53.022;12.968;2022-11-20T13:07:20;21.60;44.40
15384;DHT22;7790;53.022;12.968;2022-11-20T13:11:32;21.60;44.70
15384;DHT22;7790;53.022;12.968;2022-11-20T13:15:55;21.70;44.90
15384;DHT22;7790;53.022;12.968;2022-11-20T13:19:58;21.70;45.00
15384;DHT22;7790;53.022;12.968;2022-11-20T13:24:27;21.70;44.90
15384;DHT22;7790;53.022;12.968;2022-11-20T13:28:29;21.70;44.90
15384;DHT22;7790;53.022;12.968;2022-11-20T13:32:30;21.70;44.60
15384;DHT22;7790;53.022;12.968;2022-11-20T13:36:33;21.70;44.70
15384;DHT22;7790;53.022;12.968;2022-11-20T13:44:54;21.60;44.50
15384;DHT22;7790;53.022;12.968;2022-11-20T13:49:07;21.50;44.20
15384;DHT22;7790;53.022;12.968;2022-11-20T13:53:25;21.50;44.00
15384;DHT22;7790;53.022;12.968;2022-11-20T13:57:41;21.40;43.80
15384;DHT22;7790;53.022;12.968;2022-11-20T14:01:45;21.30;43.80
15384;DHT22;7790;53.022;12.968;2022-11-20T14:06:00;21.20;43.90
15384;DHT22;7790;53.022;12.968;2022-11-20T14:10:03;21.20;44.00
15384;DHT22;7790;53.022;12.968;2022-11-20T14:14:14;21.20;44.10
15384;DHT22;7790;53.022;12.968;2022-11-20T14:18:20;21.20;44.80
15384;DHT22;7790;53.022;12.968;2022-11-20T14:22:24;21.20;44.20
15384;DHT22;7790;53.022;12.968;2022-11-20T14:26:25;21.20;44.10
15384;DHT22;7790;53.022;12.968;2022-11-20T14:30:28;21.30;44.10
15384;DHT22;7790;53.022;12.968;2022-11-20T14:34:32;21.30;43.90
15384;DHT22;7790;53.022;12.968;2022-11-20T14:38:36;21.40;43.90
15384;DHT22;7790;53.022;12.968;2022-11-20T14:42:36;21.40;43.90
15384;DHT22;7790;53.022;12.968;2022-11-20T14:46:38;21.30;43.80
15384;DHT22;7790;53.022;12.968;2022-11-20T14:50:39;21.30;43.80
15384;DHT22;7790;53.022;12.968;2022-11-20T14:54:51;21.30;43.80
15384;DHT22;7790;53.022;12.968;2022-11-20T14:58:59;21.30;43.60
15384;DHT22;7790;53.022;12.968;2022-11-20T15:03:00;21.30;43.60
15384;DHT22;7790;53.022;12.968;2022-11-20T15:07:01;21.30;43.40
15384;DHT22;7790;53.022;12.968;2022-11-20T15:11:02;21.30;43.50
15384;DHT22;7790;53.022;12.968;2022-11-20T15:15:04;21.30;43.30
15384;DHT22;7790;53.022;12.968;2022-11-20T15:19:19;21.20;42.80
15384;DHT22;7790;53.022;12.968;2022-11-20T15:23:21;21.10;42.70
15384;DHT22;7790;53.022;12.968;2022-11-20T15:27:21;21.00;42.40
15384;DHT22;7790;53.022;12.968;2022-11-20T15:31:23;21.00;42.40
15384;DHT22;7790;53.022;12.968;2022-11-20T15:35:24;20.90;42.80
15384;DHT22;7790;53.022;12.968;2022-11-20T15:39:25;20.90;42.40
15384;DHT22;7790;53.022;12.968;2022-11-20T15:43:26;20.90;42.80
15384;DHT22;7790;53.022;12.968;2022-11-20T15:47:29;21.00;43.30
15384;DHT22;7790;53.022;12.968;2022-11-20T15:51:50;20.90;43.60
15384;DHT22;7790;53.022;12.968;2022-11-20T15:55:53;21.00;43.50
15384;DHT22;7790;53.022;12.968;2022-11-20T15:59:54;21.10;43.30
15384;DHT22;7790;53.022;12.968;2022-11-20T16:03:54;21.10;43.20
15384;DHT22;7790;53.022;12.968;2022-11-20T16:07:55;21.20;42.80
15384;DHT22;7790;53.022;12.968;2022-11-20T16:11:56;21.30;42.70
15384;DHT22;7790;53.022;12.968;2022-11-20T16:16:05;21.30;42.60
15384;DHT22;7790;53.022;12.968;2022-11-20T16:20:10;21.30;42.50
15384;DHT22;7790;53.022;12.968;2022-11-20T16:24:13;21.30;42.50
15384;DHT22;7790;53.022;12.968;2022-11-20T16:28:15;21.30;42.70
15384;DHT22;7790;53.022;12.968;2022-11-20T16:32:15;21.30;42.50
15384;DHT22;7790;53.022;12.968;2022-11-20T16:36:17;21.30;42.40
15384;DHT22;7790;53.022;12.968;2022-11-20T16:40:18;21.30;41.90
15384;DHT22;7790;53.022;12.968;2022-11-20T16:44:19;21.20;41.80
15384;DHT22;7790;53.022;12.968;2022-11-20T16:48:19;21.20;41.40
15384;DHT22;7790;53.022;12.968;2022-11-20T16:52:20;21.30;42.00
15384;DHT22;7790;53.022;12.968;2022-11-20T16:56:25;21.20;41.70
15384;DHT22;7790;53.022;12.968;2022-11-20T17:00:26;21.10;41.70
15384;DHT22;7790;53.022;12.968;2022-11-20T17:04:27;21.00;41.80
15384;DHT22;7790;53.022;12.968;2022-11-20T17:08:28;21.00;41.70
15384;DHT22;7790;53.022;12.968;2022-11-20T17:12:30;21.00;42.10
15384;DHT22;7790;53.022;12.968;2022-11-20T17:16:30;21.00;42.20
15384;DHT22;7790;53.022;12.968;2022-11-20T17:20:31;21.10;41.80
15384;DHT22;7790;53.022;12.968;2022-11-20T17:24:32;21.00;41.80
15384;DHT22;7790;53.022;12.968;2022-11-20T17:28:33;21.20;41.50
15384;DHT22;7790;53.022;12.968;2022-11-20T17:32:34;21.40;41.60
15384;DHT22;7790;53.022;12.968;2022-11-20T17:36:36;21.50;41.90
15384;DHT22;7790;53.022;12.968;2022-11-20T17:40:36;21.70;42.10
15384;DHT22;7790;53.022;12.968;2022-11-20T17:44:37;21.80;42.90
15384;DHT22;7790;53.022;12.968;2022-11-20T17:48:38;21.80;44.10
15384;DHT22;7790;53.022;12.968;2022-11-20T17:52:42;21.80;44.00
15384;DHT22;7790;53.022;12.968;2022-11-20T17:56:43;21.80;43.60
15384;DHT22;7790;53.022;12.968;2022-11-20T18:01:04;22.00;44.00
15384;DHT22;7790;53.022;12.968;2022-11-20T18:05:05;21.80;46.00
15384;DHT22;7790;53.022;12.968;2022-11-20T18:09:06;21.60;46.50
15384;DHT22;7790;53.022;12.968;2022-11-20T18:13:07;21.50;46.80
15384;DHT22;7790;53.022;12.968;2022-11-20T18:17:11;21.40;46.90
15384;DHT22;7790;53.022;12.968;2022-11-20T18:21:12;21.40;46.80
15384;DHT22;7790;53.022;12.968;2022-11-20T18:25:13;21.30;46.60
15384;DHT22;7790;53.022;12.968;2022-11-20T18:29:14;21.30;46.50
15384;DHT22;7790;53.022;12.968;2022-11-20T18:33:15;21.20;45.50
15384;DHT22;7790;53.022;12.968;2022-11-20T18:37:17;21.10;45.60
15384;DHT22;7790;53.022;12.968;2022-11-20T18:41:20;21.10;45.50
15384;DHT22;7790;53.022;12.968;2022-11-20T18:45:40;21.00;45.00
15384;DHT22;7790;53.022;12.968;2022-11-20T18:49:45;21.00;45.10
15384;DHT22;7790;53.022;12.968;2022-11-20T18:53:50;20.90;44.90
15384;DHT22;7790;53.022;12.968;2022-11-20T18:57:51;20.80;44.50
15384;DHT22;7790;53.022;12.968;2022-11-20T19:01:52;20.80;44.50
15384;DHT22;7790;53.022;12.968;2022-11-20T19:05:53;20.80;44.90
15384;DHT22;7790;53.022;12.968;2022-11-20T19:09:53;20.90;46.20
15384;DHT22;7790;53.022;12.968;2022-11-20T19:13:54;20.90;46.00
15384;DHT22;7790;53.022;12.968;2022-11-20T19:17:55;21.00;45.80
15384;DHT22;7790;53.022;12.968;2022-11-20T19:21:57;21.20;45.70
15384;DHT22;7790;53.022;12.968;2022-11-20T19:25:58;21.30;45.60
15384;DHT22;7790;53.022;12.968;2022-11-20T19:29:59;21.30;45.50
15384;DHT22;7790;53.022;12.968;2022-11-20T19:34:03;21.40;45.40
15384;DHT22;7790;53.022;12.968;2022-11-20T19:38:04;21.50;45.30
15384;DHT22;7790;53.022;12.968;2022-11-20T19:42:05;21.50;45.30
15384;DHT22;7790;53.022;12.968;2022-11-20T19:46:06;21.70;44.80
15384;DHT22;7790;53.022;12.968;2022-11-20T19:50:07;21.70;44.70
15384;DHT22;7790;53.022;12.968;2022-11-20T19:54:08;21.60;44.90
15384;DHT22;7790;53.022;12.968;2022-11-20T19:58:09;21.50;44.80
15384;DHT22;7790;53.022;12.968;2022-11-20T20:02:10;21.40;44.60
15384;DHT22;7790;53.022;12.968;2022-11-20T20:06:17;21.40;44.60
15384;DHT22;7790;53.022;12.968;2022-11-20T20:10:18;21.30;44.60
15384;DHT22;7790;53.022;12.968;2022-11-20T20:14:19;21.20;44.40
15384;DHT22;7790;53.022;12.968;2022-11-20T20:18:20;21.20;44.10
15384;DHT22;7790;53.022;12.968;2022-11-20T20:22:22;21.10;43.80
15384;DHT22;7790;53.022;12.968;2022-11-20T20:26:25;21.10;44.20
15384;DHT22;7790;53.022;12.968;2022-11-20T20:30:26;21.10;44.10
15384;DHT22;7790;53.022;12.968;2022-11-20T20:34:27;21.10;43.90
15384;DHT22;7790;53.022;12.968;2022-11-20T20:38:29;21.10;43.30
15384;DHT22;7790;53.022;12.968;2022-11-20T20:42:30;21.20;43.40
15384;DHT22;7790;53.022;12.968;2022-11-20T20:46:31;21.20;43.50
15384;DHT22;7790;53.022;12.968;2022-11-20T20:50:32;21.10;43.80
15384;DHT22;7790;53.022;12.968;2022-11-20T20:54:33;21.10;44.00
15384;DHT22;7790;53.022;12.968;2022-11-20T20:58:34;21.10;44.20
15384;DHT22;7790;53.022;12.968;2022-11-20T21:02:35;21.10;44.40
15384;DHT22;7790;53.022;12.968;2022-11-20T21:06:36;21.10;45.00
15384;DHT22;7790;53.022;12.968;2022-11-20T21:10:37;21.10;45.30
15384;DHT22;7790;53.022;12.968;2022-11-20T21:14:38;21.10;45.10
15384;DHT22;7790;53.022;12.968;2022-11-20T21:18:39;21.10;44.80
15384;DHT22;7790;53.022;12.968;2022-11-20T21:22:40;21.10;44.50
15384;DHT22;7790;53.022;12.968;2022-11-20T21:26:41;21.10;44.40
15384;DHT22;7790;53.022;12.968;2022-11-20T21:30:42;21.20;44.20
15384;DHT22;7790;53.022;12.968;2022-11-20T21:34:43;21.10;43.90
15384;DHT22;7790;53.022;12.968;2022-11-20T21:38:44;21.10;44.00
15384;DHT22;7790;53.022;12.968;2022-11-20T21:42:45;21.10;43.30
15384;DHT22;7790;53.022;12.968;2022-11-20T21:46:46;21.20;43.10
15384;DHT22;7790;53.022;12.968;2022-11-20T21:50:46;21.20;43.00
15384;DHT22;7790;53.022;12.968;2022-11-20T21:54:47;21.20;43.00
15384;DHT22;7790;53.022;12.968;2022-11-20T21:58:48;21.20;42.80
15384;DHT22;7790;53.022;12.968;2022-11-20T22:02:49;21.20;43.00
15384;DHT22;7790;53.022;12.968;2022-11-20T22:06:50;21.20;42.90
15384;DHT22;7790;53.022;12.968;2022-11-20T22:10:58;21.20;42.90
15384;DHT22;7790;53.022;12.968;2022-11-20T22:14:59;21.20;43.10
15384;DHT22;7790;53.022;12.968;2022-11-20T22:19:00;21.20;43.00
15384;DHT22;7790;53.022;12.968;2022-11-20T22:23:01;21.10;42.80
15384;DHT22;7790;53.022;12.968;2022-11-20T22:27:02;21.10;42.80
15384;DHT22;7790;53.022;12.968;2022-11-20T22:31:05;21.10;42.80
15384;DHT22;7790;53.022;12.968;2022-11-20T22:35:06;21.10;42.60
15384;DHT22;7790;53.022;12.968;2022-11-20T22:39:07;21.20;42.60
15384;DHT22;7790;53.022;12.968;2022-11-20T22:43:08;21.20;42.40
15384;DHT22;7790;53.022;12.968;2022-11-20T22:47:09;21.20;42.20
15384;DHT22;7790;53.022;12.968;2022-11-20T22:51:12;21.10;42.20
15384;DHT22;7790;53.022;12.968;2022-11-20T22:55:13;21.10;42.10
15384;DHT22;7790;53.022;12.968;2022-11-20T22:59:14;21.00;42.30
15384;DHT22;7790;53.022;12.968;2022-11-20T23:03:17;20.90;42.30
15384;DHT22;7790;53.022;12.968;2022-11-20T23:07:18;20.90;42.40
15384;DHT22;7790;53.022;12.968;2022-11-20T23:11:22;20.80;42.70
15384;DHT22;7790;53.022;12.968;2022-11-20T23:15:23;20.90;42.70
15384;DHT22;7790;53.022;12.968;2022-11-20T23:19:24;20.90;43.30
15384;DHT22;7790;53.022;12.968;2022-11-20T23:23:25;20.90;43.40
15384;DHT22;7790;53.022;12.968;2022-11-20T23:27:26;21.00;43.30
15384;DHT22;7790;53.022;12.968;2022-11-20T23:31:29;21.00;43.40
15384;DHT22;7790;53.022;12.968;2022-11-20T23:35:29;21.10;43.30
15384;DHT22;7790;53.022;12.968;2022-11-20T23:39:30;21.10;43.70
15384;DHT22;7790;53.022;12.968;2022-11-20T23:43:31;21.10;46.20
15384;DHT22;7790;53.022;12.968;2022-11-20T23:47:32;21.20;45.50
15384;DHT22;7790;53.022;12.968;2022-11-20T23:51:33;21.20;46.20
15384;DHT22;7790;53.022;12.968;2022-11-20T23:55:34;21.20;45.70
15384;DHT22;7790;53.022;12.968;2022-11-20T23:59:35;21.20;45.50
